createdAt,value
2022-12-04T00:00:33.344Z,84.58
2022-12-04T00:03:36.527Z,84.42
2022-12-04T00:06:39.244Z,81.35
2022-12-04T00:09:43.305Z,81.48
2022-12-04T00:12:46.024Z,82.43
2022-12-04T00:15:48.860Z,82.41
2022-12-04T00:18:52.049Z,83.16
2022-12-04T00:21:54.739Z,82.57
2022-12-04T00:24:58.851Z,82.44
2022-12-04T00:28:02.091Z,83.41
2022-12-04T00:31:06.842Z,83.30
2022-12-04T00:34:09.607Z,81.93
2022-12-04T00:37:12.817Z,83.15
2022-12-04T00:40:17.230Z,84.12
2022-12-04T00:43:20.030Z,84.34
2022-12-04T00:46:24.066Z,83.45
2022-12-04T00:49:27.127Z,84.14
2022-12-04T00:52:29.880Z,84.71
2022-12-04T00:55:33.947Z,84.02
2022-12-04T00:58:37.028Z,83.33
2022-12-04T01:01:40.236Z,82.58
2022-12-04T01:04:43.512Z,82.83
2022-12-04T01:07:46.269Z,82.94
2022-12-04T01:10:50.390Z,84.06
2022-12-04T01:13:53.400Z,84.19
2022-12-04T01:16:56.229Z,84.30
2022-12-04T01:19:58.988Z,84.57
2022-12-04T01:23:01.838Z,83.79
2022-12-04T01:26:06.236Z,82.86
2022-12-04T01:29:09.041Z,83.93
2022-12-04T01:32:11.840Z,84.42
2022-12-04T01:35:14.998Z,83.95
2022-12-04T01:38:17.706Z,82.89
2022-12-04T01:41:25.059Z,83.48
2022-12-04T01:44:28.324Z,83.93
2022-12-04T01:47:31.214Z,82.62
2022-12-04T01:50:34.383Z,81.77
2022-12-04T01:53:41.176Z,82.91
2022-12-04T01:56:49.719Z,84.07
2022-12-04T01:59:56.192Z,83.68
2022-12-04T02:02:59.663Z,83.91
2022-12-04T02:06:03.483Z,84.47
2022-12-04T02:09:06.419Z,84.30
2022-12-04T02:12:18.475Z,84.54
2022-12-04T02:15:27.209Z,83.44
2022-12-04T02:18:38.844Z,83.46
2022-12-04T02:21:44.480Z,84.30
2022-12-04T02:24:56.308Z,83.58
2022-12-04T02:28:05.930Z,83.55
2022-12-04T02:31:19.399Z,84.12
2022-12-04T02:34:26.664Z,83.80
2022-12-04T02:37:34.318Z,84.07
2022-12-04T02:40:45.734Z,84.02
2022-12-04T02:43:53.498Z,83.28
2022-12-04T02:47:00.377Z,83.51
2022-12-04T02:50:08.696Z,83.99
2022-12-04T02:53:19.722Z,84.05
2022-12-04T02:56:27.546Z,84.21
2022-12-04T02:59:37.448Z,84.74
2022-12-04T03:02:46.553Z,84.88
2022-12-04T03:05:57.698Z,84.91
2022-12-04T03:09:04.483Z,84.98
2022-12-04T03:12:12.865Z,85.05
2022-12-04T03:15:21.490Z,84.54
2022-12-04T03:18:29.777Z,84.34
2022-12-04T03:21:36.279Z,84.80
2022-12-04T03:24:44.631Z,84.73
2022-12-04T03:27:52.986Z,84.57
2022-12-04T03:31:03.886Z,84.94
2022-12-04T03:34:08.652Z,85.17
2022-12-04T03:37:16.842Z,84.83
2022-12-04T03:40:25.677Z,85.19
2022-12-04T03:43:34.691Z,85.12
2022-12-04T03:46:44.499Z,85.35
2022-12-04T03:49:52.459Z,85.52
2022-12-04T03:53:03.477Z,86.23
2022-12-04T03:56:10.170Z,85.75
2022-12-04T03:59:19.017Z,86.14
2022-12-04T04:02:27.135Z,86.47
2022-12-04T04:05:31.338Z,86.81
2022-12-04T04:08:38.479Z,86.31
2022-12-04T04:11:45.567Z,86.57
2022-12-04T04:15:09.558Z,86.41
2022-12-04T04:18:31.027Z,86.69
2022-12-04T04:21:55.822Z,86.95
2022-12-04T04:25:04.002Z,87.53
2022-12-04T04:28:06.920Z,87.14
2022-12-04T04:31:19.661Z,87.56
2022-12-04T04:34:31.654Z,87.64
2022-12-04T04:37:47.726Z,87.65
2022-12-04T04:40:55.791Z,87.48
2022-12-04T04:44:06.356Z,88.34
2022-12-04T04:47:12.766Z,88.67
2022-12-04T04:50:18.803Z,88.71
2022-12-04T04:53:26.857Z,88.59
2022-12-04T04:56:29.715Z,89.53
2022-12-04T04:59:34.510Z,90.13
2022-12-04T05:02:37.632Z,90.26
2022-12-04T05:05:41.723Z,89.94
2022-12-04T05:08:45.432Z,90.69
2022-12-04T05:11:48.176Z,90.38
2022-12-04T05:14:51.240Z,90.51
2022-12-04T05:17:53.976Z,90.66
2022-12-04T05:20:59.140Z,90.52
2022-12-04T05:24:02.371Z,90.09
2022-12-04T05:27:05.323Z,90.10
2022-12-04T05:30:09.533Z,90.72
2022-12-04T05:33:12.224Z,90.13
2022-12-04T05:36:16.335Z,90.49
2022-12-04T05:39:19.274Z,89.73
2022-12-04T05:42:22.081Z,90.64
2022-12-04T05:45:24.801Z,90.24
2022-12-04T05:48:27.535Z,89.65
2022-12-04T05:51:31.734Z,89.75
2022-12-04T05:54:34.567Z,89.05
2022-12-04T05:57:37.271Z,88.81
2022-12-04T06:00:40.424Z,89.70
2022-12-04T06:03:43.216Z,90.47
2022-12-04T06:06:47.557Z,90.57
2022-12-04T06:09:50.246Z,89.92
2022-12-04T06:12:57.140Z,89.52
2022-12-04T06:15:59.890Z,90.04
2022-12-04T06:19:07.668Z,90.35
2022-12-04T06:22:11.715Z,90.70
2022-12-04T06:25:14.451Z,90.29
2022-12-04T06:28:17.206Z,90.29
2022-12-04T06:31:20.219Z,89.93
2022-12-04T06:34:23.044Z,89.68
2022-12-04T06:37:27.295Z,89.22
2022-12-04T06:40:30.015Z,89.28
2022-12-04T06:43:32.959Z,88.81
2022-12-04T06:46:36.453Z,89.04
2022-12-04T06:49:39.240Z,89.55
2022-12-04T06:52:43.312Z,89.88
2022-12-04T06:55:48.892Z,90.01
2022-12-04T06:58:54.190Z,90.24
2022-12-04T07:01:57.001Z,90.04
2022-12-04T07:05:00.279Z,90.03
2022-12-04T07:08:05.120Z,89.99
2022-12-04T07:11:10.530Z,90.76
2022-12-04T07:14:14.401Z,91.22
2022-12-04T07:17:17.147Z,90.50
2022-12-04T07:20:20.119Z,90.32
2022-12-04T07:23:24.283Z,90.51
2022-12-04T07:26:28.862Z,90.90
2022-12-04T07:29:31.710Z,90.77
2022-12-04T07:32:34.467Z,91.10
2022-12-04T07:35:37.207Z,90.52
2022-12-04T07:38:41.556Z,90.70
2022-12-04T07:41:44.322Z,91.04
2022-12-04T07:44:47.692Z,90.81
2022-12-04T07:47:50.500Z,91.05
2022-12-04T07:51:03.673Z,91.46
2022-12-04T07:54:08.763Z,91.54
2022-12-04T07:57:11.473Z,91.67
2022-12-04T08:00:15.798Z,91.30
2022-12-04T08:03:18.611Z,91.25
2022-12-04T08:06:25.122Z,91.05
2022-12-04T08:09:29.225Z,90.12
2022-12-04T08:12:32.841Z,89.97
2022-12-04T08:15:35.869Z,90.08
2022-12-04T08:18:39.930Z,90.29
2022-12-04T08:21:42.669Z,90.72
2022-12-04T08:24:46.778Z,90.89
2022-12-04T08:27:49.985Z,90.22
2022-12-04T08:30:53.061Z,90.03
2022-12-04T08:33:58.559Z,89.50
2022-12-04T08:37:02.615Z,89.30
2022-12-04T08:40:08.132Z,89.50
2022-12-04T08:43:10.834Z,90.10
2022-12-04T08:46:15.110Z,91.01
2022-12-04T08:49:17.834Z,90.91
2022-12-04T08:52:20.684Z,91.18
2022-12-04T08:55:24.713Z,91.19
2022-12-04T08:58:27.412Z,90.80
2022-12-04T09:01:30.568Z,90.87
2022-12-04T09:04:33.392Z,91.16
2022-12-04T09:07:36.703Z,90.90
2022-12-04T09:10:43.308Z,90.72
2022-12-04T09:13:46.902Z,90.88
2022-12-04T09:16:49.631Z,90.73
2022-12-04T09:19:55.484Z,90.95
2022-12-04T09:23:05.008Z,91.30
2022-12-04T09:26:20.099Z,92.09
2022-12-04T09:29:22.831Z,92.25
2022-12-04T09:32:25.550Z,90.88
2022-12-04T09:35:29.742Z,89.52
2022-12-04T09:38:33.553Z,89.29
2022-12-04T09:42:11.872Z,90.18
2022-12-04T09:45:17.854Z,89.90
2022-12-04T09:48:23.442Z,89.66
2022-12-04T09:51:27.751Z,89.73
2022-12-04T09:54:35.159Z,89.21
2022-12-04T09:57:44.742Z,88.85
2022-12-04T10:00:50.970Z,89.54
2022-12-04T10:03:56.906Z,89.03
2022-12-04T10:07:08.500Z,88.79
2022-12-04T10:10:20.268Z,88.16
2022-12-04T10:13:45.467Z,89.85
2022-12-04T10:17:00.158Z,89.84
2022-12-04T10:20:18.501Z,89.64
2022-12-04T10:23:31.078Z,90.32
2022-12-04T10:26:38.904Z,90.12
2022-12-04T10:29:44.698Z,89.75
2022-12-04T10:32:48.465Z,89.74
2022-12-04T10:35:53.972Z,88.48
2022-12-04T10:38:59.652Z,88.14
2022-12-04T10:42:10.923Z,87.98
2022-12-04T10:45:15.439Z,88.54
2022-12-04T10:48:24.710Z,88.32
2022-12-04T10:51:33.168Z,88.27
2022-12-04T10:54:39.807Z,88.29
2022-12-04T10:57:44.739Z,88.32
2022-12-04T11:01:03.614Z,88.18
2022-12-04T11:04:10.113Z,88.10
2022-12-04T11:07:21.806Z,87.92
2022-12-04T11:10:29.477Z,87.97
2022-12-04T11:13:32.350Z,87.52
2022-12-04T11:16:40.013Z,88.18
2022-12-04T11:19:42.841Z,88.45
2022-12-04T11:22:53.624Z,89.06
2022-12-04T11:26:05.305Z,87.63
2022-12-04T11:29:14.596Z,87.27
2022-12-04T11:32:24.119Z,87.36
2022-12-04T11:35:29.017Z,87.26
2022-12-04T11:38:35.169Z,87.31
2022-12-04T11:41:38.185Z,87.58
2022-12-04T11:44:50.644Z,87.75
2022-12-04T11:48:00.152Z,86.70
2022-12-04T11:51:16.481Z,86.93
2022-12-04T11:54:29.546Z,87.01
2022-12-04T11:57:40.751Z,87.44
2022-12-04T12:00:54.730Z,87.66
2022-12-04T12:04:19.448Z,87.06
2022-12-04T12:07:36.285Z,87.41
2022-12-04T12:10:47.378Z,87.42
2022-12-04T12:13:59.317Z,87.12
2022-12-04T12:17:12.781Z,86.87
2022-12-04T12:20:24.723Z,87.32
2022-12-04T12:23:45.199Z,87.18
2022-12-04T12:26:55.809Z,86.47
2022-12-04T12:30:05.515Z,87.11
2022-12-04T12:33:16.837Z,87.90
2022-12-04T12:36:23.751Z,87.41
2022-12-04T12:39:36.672Z,87.08
2022-12-04T12:42:44.313Z,86.88
2022-12-04T12:45:53.837Z,87.21
2022-12-04T12:49:05.235Z,86.76
2022-12-04T12:52:28.561Z,86.98
2022-12-04T12:55:37.139Z,87.37
2022-12-04T12:58:45.142Z,87.45
2022-12-04T13:01:58.676Z,87.24
2022-12-04T13:05:08.068Z,87.75
2022-12-04T13:08:22.129Z,87.76
2022-12-04T13:11:28.816Z,86.44
2022-12-04T13:14:31.582Z,87.30
2022-12-04T13:17:39.418Z,87.18
2022-12-04T13:20:50.636Z,87.13
2022-12-04T13:24:12.815Z,87.13
2022-12-04T13:27:23.752Z,87.54
2022-12-04T13:30:33.144Z,87.70
2022-12-04T13:33:50.871Z,87.65
2022-12-04T13:37:08.748Z,87.27
2022-12-04T13:40:39.714Z,87.41
2022-12-04T13:43:48.203Z,87.05
2022-12-04T13:46:57.182Z,88.74
2022-12-04T13:50:28.303Z,88.66
2022-12-04T13:53:32.834Z,89.19
2022-12-04T13:56:37.167Z,88.72
2022-12-04T13:59:40.874Z,87.80
2022-12-04T14:02:50.353Z,87.50
2022-12-04T14:05:53.836Z,87.52
2022-12-04T14:08:59.835Z,88.27
2022-12-04T14:12:07.019Z,87.82
2022-12-04T14:15:21.317Z,87.79
2022-12-04T14:18:30.567Z,87.93
2022-12-04T14:21:40.523Z,88.15
2022-12-04T14:24:43.276Z,88.56
2022-12-04T14:27:51.798Z,88.65
2022-12-04T14:31:06.348Z,87.92
2022-12-04T14:34:24.483Z,88.23
2022-12-04T14:37:31.787Z,88.72
2022-12-04T14:40:38.391Z,88.92
2022-12-04T14:43:48.280Z,89.22
2022-12-04T14:46:54.118Z,88.86
2022-12-04T14:50:10.965Z,88.32
2022-12-04T14:53:24.652Z,88.10
2022-12-04T14:56:52.682Z,87.73
2022-12-04T14:59:57.437Z,88.20
2022-12-04T15:03:01.647Z,87.83
2022-12-04T15:06:07.939Z,87.57
2022-12-04T15:09:35.795Z,88.08
2022-12-04T15:12:45.908Z,87.78
2022-12-04T15:15:50.314Z,87.65
2022-12-04T15:18:57.328Z,88.01
2022-12-04T15:22:00.070Z,88.22
2022-12-04T15:25:06.185Z,88.05
2022-12-04T15:28:14.777Z,88.17
2022-12-04T15:31:22.346Z,88.44
2022-12-04T15:34:38.808Z,88.46
2022-12-04T15:37:42.058Z,88.44
2022-12-04T15:40:52.759Z,88.31
2022-12-04T15:43:55.522Z,88.50
2022-12-04T15:47:02.118Z,88.57
2022-12-04T15:50:21.131Z,88.03
2022-12-04T15:53:27.841Z,88.27
2022-12-04T15:56:30.797Z,88.35
2022-12-04T15:59:35.915Z,88.30
2022-12-04T16:02:43.677Z,87.83
2022-12-04T16:05:46.679Z,88.31
2022-12-04T16:08:51.114Z,88.57
2022-12-04T16:12:02.626Z,88.50
2022-12-04T16:15:05.881Z,88.53
2022-12-04T16:18:14.056Z,88.72
2022-12-04T16:21:19.937Z,88.86
2022-12-04T16:24:22.726Z,89.03
2022-12-04T16:27:26.427Z,89.19
2022-12-04T16:30:32.827Z,89.50
2022-12-04T16:33:37.635Z,89.53
2022-12-04T16:36:40.500Z,89.35
2022-12-04T16:39:43.636Z,89.40
2022-12-04T16:42:46.685Z,89.44
2022-12-04T16:45:52.946Z,89.79
2022-12-04T16:48:57.249Z,89.58
2022-12-04T16:52:00.074Z,90.07
2022-12-04T16:55:05.506Z,89.85
2022-12-04T16:58:09.047Z,89.98
2022-12-04T17:01:19.328Z,90.50
2022-12-04T17:04:23.650Z,90.85
2022-12-04T17:07:26.485Z,90.74
2022-12-04T17:10:30.200Z,90.98
2022-12-04T17:13:32.928Z,91.13
2022-12-04T17:16:36.163Z,91.35
2022-12-04T17:19:40.289Z,91.21
2022-12-04T17:22:43.214Z,91.18
2022-12-04T17:25:45.941Z,91.53
2022-12-04T17:28:50.931Z,91.31
2022-12-04T17:31:53.696Z,91.39
2022-12-04T17:34:58.093Z,91.34
2022-12-04T17:38:05.984Z,91.64
2022-12-04T17:41:13.684Z,91.38
2022-12-04T17:44:16.458Z,91.57
2022-12-04T17:47:19.467Z,91.60
2022-12-04T17:50:23.563Z,91.78
2022-12-04T17:53:26.398Z,91.89
2022-12-04T17:56:29.200Z,91.87
2022-12-04T17:59:32.063Z,92.03
2022-12-04T18:02:34.790Z,91.82
2022-12-04T18:05:38.998Z,92.11
2022-12-04T18:08:45.313Z,91.87
2022-12-04T18:11:52.450Z,92.09
2022-12-04T18:14:55.299Z,91.83
2022-12-04T18:17:58.023Z,91.83
2022-12-04T18:21:02.899Z,92.08
2022-12-04T18:24:06.459Z,91.76
2022-12-04T18:27:09.591Z,91.78
2022-12-04T18:30:12.700Z,91.96
2022-12-04T18:33:18.928Z,92.20
2022-12-04T18:36:25.745Z,92.25
2022-12-04T18:39:28.566Z,92.14
2022-12-04T18:42:32.227Z,92.11
2022-12-04T18:45:35.042Z,92.31
2022-12-04T18:48:38.951Z,92.32
2022-12-04T18:51:48.918Z,92.21
2022-12-04T18:54:52.557Z,92.17
2022-12-04T18:57:55.571Z,92.15
2022-12-04T19:01:05.858Z,92.54
2022-12-04T19:04:11.068Z,92.39
2022-12-04T19:07:15.152Z,92.29
2022-12-04T19:10:17.986Z,92.39
2022-12-04T19:13:20.671Z,91.78
2022-12-04T19:16:23.551Z,92.01
2022-12-04T19:19:31.351Z,92.10
2022-12-04T19:22:35.899Z,92.17
2022-12-04T19:25:38.682Z,92.18
2022-12-04T19:28:43.175Z,91.83
2022-12-04T19:31:46.509Z,92.30
2022-12-04T19:34:50.100Z,92.16
2022-12-04T19:37:54.332Z,92.13
2022-12-04T19:41:09.487Z,91.95
2022-12-04T19:44:46.711Z,92.27
2022-12-04T19:47:35.005Z,92.00
2022-12-04T19:50:37.741Z,92.06
2022-12-04T19:53:42.622Z,92.05
2022-12-04T19:56:50.941Z,92.36
2022-12-04T19:59:53.660Z,92.01
2022-12-04T20:02:56.565Z,92.11
2022-12-04T20:06:02.689Z,92.15
2022-12-04T20:09:09.412Z,91.81
2022-12-04T20:12:12.216Z,92.07
2022-12-04T20:15:14.929Z,92.12
2022-12-04T20:18:17.655Z,92.15
2022-12-04T20:21:21.078Z,92.00
2022-12-04T20:24:25.161Z,92.02
2022-12-04T20:27:27.986Z,91.98
2022-12-04T20:30:30.796Z,92.17
2022-12-04T20:33:33.559Z,91.95
2022-12-04T20:36:38.079Z,91.95
2022-12-04T20:39:42.229Z,92.25
2022-12-04T20:42:44.915Z,92.09
2022-12-04T20:45:47.673Z,91.83
2022-12-04T20:48:53.252Z,91.91
2022-12-04T20:51:55.986Z,92.01
2022-12-04T20:55:00.297Z,91.77
2022-12-04T20:58:03.976Z,91.78
2022-12-04T21:01:08.224Z,91.77
2022-12-04T21:04:12.741Z,91.79
2022-12-04T21:07:15.449Z,92.04
2022-12-04T21:10:19.930Z,91.57
2022-12-04T21:13:40.112Z,91.68
2022-12-04T21:16:43.041Z,91.85
2022-12-04T21:19:47.034Z,91.50
2022-12-04T21:22:50.107Z,91.65
2022-12-04T21:25:57.271Z,91.73
2022-12-04T21:29:00.026Z,91.77
2022-12-04T21:32:03.736Z,91.64
2022-12-04T21:35:07.596Z,91.90
2022-12-04T21:38:10.319Z,91.61
2022-12-04T21:41:35.382Z,91.54
2022-12-04T21:44:39.231Z,91.58
2022-12-04T21:47:42.334Z,91.53
2022-12-04T21:50:45.349Z,91.59
2022-12-04T21:53:48.420Z,91.56
2022-12-04T21:56:52.755Z,91.77
2022-12-04T21:59:55.669Z,91.66
2022-12-04T22:02:59.548Z,91.29
2022-12-04T22:06:04.132Z,91.60
2022-12-04T22:09:08.822Z,91.52
2022-12-04T22:12:47.861Z,91.63
2022-12-04T22:15:37.459Z,91.27
2022-12-04T22:18:40.280Z,91.35
2022-12-04T22:21:42.942Z,91.72
2022-12-04T22:24:45.620Z,91.42
2022-12-04T22:27:49.688Z,91.35
2022-12-04T22:30:52.727Z,91.41
2022-12-04T22:33:57.481Z,91.49
2022-12-04T22:37:00.252Z,91.45
2022-12-04T22:40:03.586Z,91.63
2022-12-04T22:43:07.641Z,91.28
2022-12-04T22:46:11.609Z,91.29
2022-12-04T22:49:14.382Z,91.54
2022-12-04T22:52:17.138Z,91.68
2022-12-04T22:55:19.863Z,91.54
2022-12-04T22:58:24.121Z,91.53
2022-12-04T23:01:29.165Z,91.69
2022-12-04T23:04:31.991Z,91.50
2022-12-04T23:07:34.867Z,91.78
2022-12-04T23:10:39.183Z,91.80
2022-12-04T23:13:43.515Z,91.82
2022-12-04T23:16:46.282Z,91.65
2022-12-04T23:19:49.049Z,91.75
2022-12-04T23:22:54.730Z,91.72
2022-12-04T23:25:57.443Z,91.83
2022-12-04T23:29:02.583Z,91.49
2022-12-04T23:32:05.690Z,91.57
2022-12-04T23:35:09.030Z,91.62
2022-12-04T23:38:11.772Z,91.90
2022-12-04T23:41:18.780Z,91.81
2022-12-04T23:44:22.851Z,91.82
2022-12-04T23:47:26.078Z,91.70
2022-12-04T23:50:28.780Z,91.81
2022-12-04T23:53:31.567Z,92.07
2022-12-04T23:56:34.326Z,91.69
2022-12-04T23:59:38.450Z,91.61
